createdAt,value
2018-04-29T00:01:40.640Z,100929.33
2018-04-29T00:04:43.943Z,100923.27
2018-04-29T00:07:47.329Z,100916.34
2018-04-29T00:10:50.738Z,100911.09
2018-04-29T00:13:54.053Z,100910.22
2018-04-29T00:16:57.440Z,100911.91
2018-04-29T00:20:00.841Z,100913.09
2018-04-29T00:23:04.170Z,100897.78
2018-04-29T00:26:08.260Z,100902.84
2018-04-29T00:29:11.659Z,100895.27
2018-04-29T00:32:15.052Z,100893.30
2018-04-29T00:35:18.359Z,100889.16
2018-04-29T00:38:22.456Z,100887.56
2018-04-29T00:41:25.758Z,100895.14
2018-04-29T00:44:29.072Z,100892.67
2018-04-29T00:47:32.458Z,100897.72
2018-04-29T00:50:35.830Z,100899.83
2018-04-29T00:53:39.153Z,100904.77
2018-04-29T00:56:42.675Z,100907.55
2018-04-29T00:59:45.996Z,100908.18
2018-04-29T01:02:50.092Z,100904.10
2018-04-29T01:05:53.545Z,100902.61
2018-04-29T01:08:56.826Z,100898.97
2018-04-29T01:12:00.180Z,100901.70
2018-04-29T01:15:03.491Z,100892.40
2018-04-29T01:18:06.845Z,100890.85
2018-04-29T01:21:10.266Z,100883.12
2018-04-29T01:24:13.599Z,100899.61
2018-04-29T01:27:17.784Z,100907.03
2018-04-29T01:30:21.093Z,100909.69
2018-04-29T01:33:24.421Z,100911.09
2018-04-29T01:36:28.510Z,100919.95
2018-04-29T01:39:32.612Z,100913.09
2018-04-29T01:42:35.950Z,100918.34
2018-04-29T01:45:40.035Z,100916.27
2018-04-29T01:48:43.386Z,100922.38
2018-04-29T01:51:46.717Z,100922.55
2018-04-29T01:54:50.116Z,100923.90
2018-04-29T01:57:53.437Z,100923.00
2018-04-29T02:00:56.823Z,100932.52
2018-04-29T02:04:00.162Z,100933.75
2018-04-29T02:07:04.281Z,100936.47
2018-04-29T02:10:08.375Z,100947.62
2018-04-29T02:13:11.754Z,100951.89
2018-04-29T02:16:15.143Z,100943.92
2018-04-29T02:19:18.458Z,100927.59
2018-04-29T02:22:21.785Z,100917.15
2018-04-29T02:25:25.968Z,100917.05
2018-04-29T02:28:29.370Z,100924.98
2018-04-29T02:31:32.766Z,100931.80
2018-04-29T02:34:36.091Z,100933.16
2018-04-29T02:37:40.289Z,100949.06
2018-04-29T02:40:43.682Z,100938.78
2018-04-29T02:43:47.018Z,100942.95
2018-04-29T02:46:51.114Z,100948.86
2018-04-29T02:49:54.484Z,100946.69
2018-04-29T02:52:57.835Z,100947.70
2018-04-29T02:56:02.017Z,100943.13
2018-04-29T02:59:05.422Z,100946.52
2018-04-29T03:02:08.770Z,100944.47
2018-04-29T03:05:12.068Z,100942.68
2018-04-29T03:08:15.398Z,100947.81
2018-04-29T03:11:18.707Z,100947.81
2018-04-29T03:14:22.113Z,100934.91
2018-04-29T03:17:25.507Z,100948.31
2018-04-29T03:20:28.829Z,100958.64
2018-04-29T03:23:32.194Z,100948.27
2018-04-29T03:26:35.506Z,100941.70
2018-04-29T03:29:38.834Z,100930.08
2018-04-29T03:32:42.196Z,100935.27
2018-04-29T03:35:45.534Z,100941.27
2018-04-29T03:38:49.613Z,100946.05
2018-04-29T03:41:53.017Z,100946.09
2018-04-29T03:44:56.328Z,100951.78
2018-04-29T03:47:59.663Z,100957.83
2018-04-29T03:51:02.974Z,100950.16
2018-04-29T03:54:06.409Z,100953.62
2018-04-29T03:57:27.560Z,100957.62
2018-04-29T04:01:02.373Z,100958.81
2018-04-29T04:04:05.712Z,100958.70
2018-04-29T04:07:09.892Z,100947.88
2018-04-29T04:10:13.287Z,100948.09
2018-04-29T04:13:16.670Z,100956.35
2018-04-29T04:16:20.085Z,100954.95
2018-04-29T04:19:23.414Z,100953.35
2018-04-29T04:22:27.514Z,100971.32
2018-04-29T04:25:30.827Z,100973.66
2018-04-29T04:28:34.910Z,100979.17
2018-04-29T04:31:38.305Z,100970.39
2018-04-29T04:34:41.705Z,100975.84
2018-04-29T04:37:45.113Z,100969.53
2018-04-29T04:40:48.505Z,100960.44
2018-04-29T04:43:51.915Z,100960.62
2018-04-29T04:46:55.240Z,100950.98
2018-04-29T04:49:58.562Z,100951.83
2018-04-29T04:53:01.902Z,100957.34
2018-04-29T04:56:05.209Z,100954.48
2018-04-29T04:59:08.605Z,100955.13
2018-04-29T05:02:11.951Z,100951.02
2018-04-29T05:05:16.030Z,100947.99
2018-04-29T05:08:19.408Z,100955.69
2018-04-29T05:11:22.725Z,100956.66
2018-04-29T05:14:26.116Z,100945.28
2018-04-29T05:17:29.521Z,100967.75
2018-04-29T05:20:32.917Z,100996.44
2018-04-29T05:23:36.421Z,101005.38
2018-04-29T05:26:39.818Z,100993.80
2018-04-29T05:29:43.145Z,100995.63
2018-04-29T05:32:47.270Z,100994.11
2018-04-29T05:35:51.444Z,100993.13
2018-04-29T05:38:54.840Z,100997.79
2018-04-29T05:41:58.245Z,101012.23
2018-04-29T05:45:01.661Z,101010.70
2018-04-29T05:48:05.864Z,101019.81
2018-04-29T05:51:09.264Z,101023.09
2018-04-29T05:54:12.671Z,101024.23
2018-04-29T05:57:16.083Z,101024.41
2018-04-29T06:00:19.515Z,101031.61
2018-04-29T06:03:22.821Z,101036.38
2018-04-29T06:06:27.085Z,101046.14
2018-04-29T06:09:30.325Z,101043.45
2018-04-29T06:12:34.561Z,101042.80
2018-04-29T06:15:37.941Z,101057.47
2018-04-29T06:18:41.253Z,101053.69
2018-04-29T06:21:45.549Z,101054.55
2018-04-29T06:24:48.878Z,101053.87
2018-04-29T06:27:52.208Z,101046.97
2018-04-29T06:30:55.516Z,101047.09
2018-04-29T06:33:58.844Z,101058.98
2018-04-29T06:37:03.050Z,101053.48
2018-04-29T06:40:06.377Z,101051.70
2018-04-29T06:43:10.473Z,101050.13
2018-04-29T06:46:13.798Z,101053.22
2018-04-29T06:49:19.091Z,101054.30
2018-04-29T06:52:22.506Z,101055.15
2018-04-29T06:55:25.903Z,101057.52
2018-04-29T06:58:29.248Z,101053.83
2018-04-29T07:01:32.571Z,101040.41
2018-04-29T07:04:35.926Z,101039.94
2018-04-29T07:07:40.005Z,101038.08
2018-04-29T07:10:43.342Z,101035.98
2018-04-29T07:13:47.539Z,101046.23
2018-04-29T07:16:50.933Z,101046.27
2018-04-29T07:19:54.292Z,101047.48
2018-04-29T07:22:58.388Z,101049.97
2018-04-29T07:26:01.786Z,101054.39
2018-04-29T07:29:05.172Z,101064.97
2018-04-29T07:32:09.264Z,101074.23
2018-04-29T07:35:12.665Z,101072.60
2018-04-29T07:38:16.015Z,101074.16
2018-04-29T07:41:19.371Z,101071.53
2018-04-29T07:44:22.704Z,101083.23
2018-04-29T07:47:26.148Z,101080.89
2018-04-29T07:50:29.496Z,101070.86
2018-04-29T07:53:33.682Z,101073.64
2018-04-29T07:56:36.998Z,101083.39
2018-04-29T07:59:41.510Z,101081.95
2018-04-29T08:02:45.625Z,101078.67
2018-04-29T08:05:50.540Z,101077.16
2018-04-29T08:08:53.859Z,101076.28
2018-04-29T08:11:58.609Z,101080.22
2018-04-29T08:15:02.714Z,101081.08
2018-04-29T08:18:06.087Z,101083.48
2018-04-29T08:21:09.481Z,101087.19
2018-04-29T08:24:12.842Z,101087.65
2018-04-29T08:27:16.161Z,101091.25
2018-04-29T08:30:19.499Z,101086.55
2018-04-29T08:33:22.877Z,101076.52
2018-04-29T08:36:26.285Z,101070.81
2018-04-29T08:39:29.594Z,101071.96
2018-04-29T08:42:33.005Z,101073.09
2018-04-29T08:45:37.193Z,101078.84
2018-04-29T08:48:40.615Z,101086.95
2018-04-29T08:51:43.938Z,101093.06
2018-04-29T08:54:48.106Z,101095.53
2018-04-29T08:57:52.133Z,101093.94
2018-04-29T09:00:55.486Z,101084.78
2018-04-29T09:03:58.902Z,101076.98
2018-04-29T09:07:02.231Z,101082.58
2018-04-29T09:10:05.636Z,101085.92
2018-04-29T09:13:09.049Z,101083.38
2018-04-29T09:16:12.435Z,101085.17
2018-04-29T09:19:15.781Z,101082.74
2018-04-29T09:22:19.149Z,101082.77
2018-04-29T09:25:22.511Z,101074.00
2018-04-29T09:28:25.825Z,101067.30
2018-04-29T09:31:29.248Z,101077.66
2018-04-29T09:34:32.603Z,101081.98
2018-04-29T09:37:35.953Z,101077.40
2018-04-29T09:40:39.281Z,101084.87
2018-04-29T09:43:42.662Z,101094.08
2018-04-29T09:46:46.025Z,101086.66
2018-04-29T09:49:49.371Z,101081.80
2018-04-29T09:52:52.703Z,101079.27
2018-04-29T09:55:56.123Z,101074.48
2018-04-29T09:58:59.441Z,101078.83
2018-04-29T10:02:02.803Z,101080.13
2018-04-29T10:05:06.126Z,101075.31
2018-04-29T10:08:09.498Z,101074.33
2018-04-29T10:11:12.817Z,101066.87
2018-04-29T10:14:16.156Z,101076.02
2018-04-29T10:17:20.238Z,101072.50
2018-04-29T10:20:23.620Z,101076.00
2018-04-29T10:23:27.034Z,101074.72
2018-04-29T10:26:31.956Z,101074.39
2018-04-29T10:29:35.260Z,101071.84
2018-04-29T10:32:40.239Z,101073.16
2018-04-29T10:35:43.485Z,101067.48
2018-04-29T10:38:46.847Z,101057.44
2018-04-29T10:41:50.904Z,101062.68
2018-04-29T10:44:54.298Z,101059.52
2018-04-29T10:47:57.604Z,101062.12
2018-04-29T10:51:00.949Z,101078.29
2018-04-29T10:54:05.021Z,101084.95
2018-04-29T10:57:08.365Z,101070.53
2018-04-29T11:00:12.445Z,101074.05
2018-04-29T11:03:15.845Z,101071.88
2018-04-29T11:06:19.232Z,101072.75
2018-04-29T11:09:22.626Z,101065.75
2018-04-29T11:12:25.948Z,101056.11
2018-04-29T11:15:29.285Z,101065.68
2018-04-29T11:18:32.636Z,101063.85
2018-04-29T11:21:35.989Z,101062.05
2018-04-29T11:24:39.418Z,101078.91
2018-04-29T11:27:42.834Z,101087.55
2018-04-29T11:30:46.154Z,101085.80
2018-04-29T11:33:50.429Z,101071.94
2018-04-29T11:36:53.904Z,101070.11
2018-04-29T11:39:57.245Z,101063.09
2018-04-29T11:43:00.566Z,101062.55
2018-04-29T11:46:03.948Z,101063.29
2018-04-29T11:49:07.350Z,101064.13
2018-04-29T11:52:10.747Z,101063.35
2018-04-29T11:55:14.091Z,101063.93
2018-04-29T11:58:18.270Z,101053.63
2018-04-29T12:01:21.705Z,101051.92
2018-04-29T12:04:25.827Z,101060.22
2018-04-29T12:07:29.172Z,101067.30
2018-04-29T12:10:32.586Z,101058.21
2018-04-29T12:13:35.912Z,101069.11
2018-04-29T12:16:40.220Z,101061.80
2018-04-29T12:19:43.585Z,101048.28
2018-04-29T12:22:47.137Z,101039.09
2018-04-29T12:25:51.246Z,101033.84
2018-04-29T12:28:54.581Z,101025.09
2018-04-29T12:31:57.914Z,101028.16
2018-04-29T12:35:01.346Z,101033.85
2018-04-29T12:38:04.672Z,101029.05
2018-04-29T12:41:08.117Z,101024.23
2018-04-29T12:44:11.568Z,101026.43
2018-04-29T12:47:14.931Z,101029.05
2018-04-29T12:50:18.315Z,101039.52
2018-04-29T12:53:21.652Z,101034.94
2018-04-29T12:56:25.743Z,101021.75
2018-04-29T12:59:30.614Z,101015.02
2018-04-29T13:02:33.948Z,101014.09
2018-04-29T13:05:37.394Z,101002.69
2018-04-29T13:08:41.469Z,101007.72
2018-04-29T13:11:44.874Z,101010.25
2018-04-29T13:14:48.189Z,101009.20
2018-04-29T13:17:51.589Z,101006.52
2018-04-29T13:20:54.937Z,100997.47
2018-04-29T13:23:58.287Z,101002.72
2018-04-29T13:27:01.625Z,101007.88
2018-04-29T13:30:05.738Z,101009.09
2018-04-29T13:33:09.829Z,101006.33
2018-04-29T13:36:13.205Z,100998.52
2018-04-29T13:39:16.522Z,100989.08
2018-04-29T13:42:20.029Z,100985.50
2018-04-29T13:45:23.308Z,100973.34
2018-04-29T13:48:26.718Z,100981.56
2018-04-29T13:51:30.029Z,100985.03
2018-04-29T13:54:34.211Z,100995.37
2018-04-29T13:57:37.626Z,101001.81
2018-04-29T14:00:42.531Z,101000.02
2018-04-29T14:03:45.853Z,101002.51
2018-04-29T14:06:49.192Z,101006.20
2018-04-29T14:09:53.291Z,101005.37
2018-04-29T14:12:56.658Z,101002.84
2018-04-29T14:15:59.985Z,100998.02
2018-04-29T14:19:03.320Z,100991.72
2018-04-29T14:22:06.692Z,100986.83
2018-04-29T14:25:10.808Z,100991.12
2018-04-29T14:28:14.176Z,100999.89
2018-04-29T14:31:17.605Z,101002.30
2018-04-29T14:34:20.888Z,101009.67
2018-04-29T14:37:24.294Z,101010.27
2018-04-29T14:40:27.646Z,101002.33
2018-04-29T14:43:31.014Z,101002.00
2018-04-29T14:46:35.098Z,100992.30
2018-04-29T14:49:38.518Z,100982.86
2018-04-29T14:52:42.610Z,100976.11
2018-04-29T14:55:46.014Z,100979.66
2018-04-29T14:58:49.407Z,100970.66
2018-04-29T15:01:52.813Z,100957.31
2018-04-29T15:04:56.272Z,100951.38
2018-04-29T15:08:00.003Z,100941.77
2018-04-29T15:11:04.500Z,100943.97
2018-04-29T15:14:07.957Z,100935.16
2018-04-29T15:17:11.637Z,100935.44
2018-04-29T15:20:15.208Z,100934.97
2018-04-29T15:23:18.915Z,100924.05
2018-04-29T15:26:22.329Z,100917.27
2018-04-29T15:29:25.987Z,100924.45
2018-04-29T15:32:30.095Z,100924.38
2018-04-29T15:35:33.487Z,100917.65
2018-04-29T15:38:36.899Z,100908.13
2018-04-29T15:41:40.286Z,100900.25
2018-04-29T15:44:43.692Z,100899.23
2018-04-29T15:47:47.011Z,100904.65
2018-04-29T15:50:51.132Z,100899.72
2018-04-29T15:53:55.226Z,100894.47
2018-04-29T15:56:58.578Z,100898.65
2018-04-29T16:00:01.922Z,100896.05
2018-04-29T16:03:05.271Z,100891.27
2018-04-29T16:06:08.635Z,100886.58
2018-04-29T16:09:11.962Z,100890.17
2018-04-29T16:12:15.303Z,100881.41
2018-04-29T16:15:18.641Z,100883.47
2018-04-29T16:18:22.838Z,100878.27
2018-04-29T16:21:26.200Z,100880.91
2018-04-29T16:24:29.621Z,100875.73
2018-04-29T16:27:32.956Z,100849.61
2018-04-29T16:30:37.157Z,100836.38
2018-04-29T16:33:40.469Z,100857.35
2018-04-29T16:36:44.576Z,100871.52
2018-04-29T16:39:47.911Z,100862.09
2018-04-29T16:42:51.277Z,100849.69
2018-04-29T16:45:55.422Z,100841.58
2018-04-29T16:48:58.880Z,100844.52
2018-04-29T16:52:02.235Z,100844.05
2018-04-29T16:55:05.587Z,100836.38
2018-04-29T16:58:08.984Z,100826.86
2018-04-29T17:01:12.365Z,100827.76
2018-04-29T17:04:15.673Z,100835.50
2018-04-29T17:07:19.024Z,100829.46
2018-04-29T17:10:22.367Z,100818.03
2018-04-29T17:13:25.799Z,100811.17
2018-04-29T17:16:29.987Z,100806.77
2018-04-29T17:19:33.304Z,100813.94
2018-04-29T17:22:36.665Z,100812.03
2018-04-29T17:25:40.003Z,100802.25
2018-04-29T17:28:43.398Z,100796.76
2018-04-29T17:31:46.886Z,100777.13
2018-04-29T17:34:50.302Z,100774.09
2018-04-29T17:37:53.639Z,100759.30
2018-04-29T17:40:56.994Z,100753.62
2018-04-29T17:44:01.211Z,100738.78
2018-04-29T17:47:04.550Z,100742.19
2018-04-29T17:50:08.010Z,100746.53
2018-04-29T17:53:11.408Z,100749.59
2018-04-29T17:56:14.758Z,100746.56
2018-04-29T17:59:18.103Z,100759.92
2018-04-29T18:02:21.496Z,100762.77
2018-04-29T18:05:24.930Z,100758.83
2018-04-29T18:08:29.142Z,100766.46
2018-04-29T18:11:33.262Z,100771.30
2018-04-29T18:14:37.454Z,100757.88
2018-04-29T18:17:40.910Z,100767.95
2018-04-29T18:20:44.348Z,100768.41
2018-04-29T18:23:47.673Z,100768.85
2018-04-29T18:26:51.246Z,100768.84
2018-04-29T18:29:54.593Z,100782.25
2018-04-29T18:32:58.685Z,100789.90
2018-04-29T18:36:02.893Z,100797.61
2018-04-29T18:39:06.317Z,100796.70
2018-04-29T18:42:09.681Z,100793.70
2018-04-29T18:45:13.110Z,100785.06
2018-04-29T18:48:16.515Z,100777.16
2018-04-29T18:51:19.972Z,100771.14
2018-04-29T18:54:23.383Z,100759.84
2018-04-29T18:57:26.742Z,100761.44
2018-04-29T19:00:30.085Z,100755.33
2018-04-29T19:03:33.426Z,100766.65
2018-04-29T19:06:37.933Z,100769.63
2018-04-29T19:09:41.274Z,100762.71
2018-04-29T19:12:44.608Z,100759.08
2018-04-29T19:15:48.017Z,100753.41
2018-04-29T19:18:51.355Z,100726.10
2018-04-29T19:21:55.525Z,100727.75
2018-04-29T19:24:58.850Z,100715.56
2018-04-29T19:28:04.384Z,100709.89
2018-04-29T19:31:07.771Z,100708.16
2018-04-29T19:34:11.231Z,100716.55
2018-04-29T19:37:14.676Z,100731.33
2018-04-29T19:40:19.228Z,100741.37
2018-04-29T19:43:23.336Z,100733.66
2018-04-29T19:46:26.699Z,100731.42
2018-04-29T19:49:30.053Z,100729.05
2018-04-29T19:52:34.166Z,100716.61
2018-04-29T19:55:38.309Z,100704.46
2018-04-29T19:58:41.643Z,100697.39
2018-04-29T20:01:44.995Z,100702.13
2018-04-29T20:04:49.144Z,100703.80
2018-04-29T20:07:53.222Z,100689.34
2018-04-29T20:10:56.706Z,100676.30
2018-04-29T20:14:00.551Z,100659.80
2018-04-29T20:17:03.880Z,100642.48
2018-04-29T20:20:07.296Z,100641.55
2018-04-29T20:23:10.630Z,100650.66
2018-04-29T20:26:14.214Z,100666.48
2018-04-29T20:29:17.602Z,100668.94
2018-04-29T20:32:38.584Z,100659.56
2018-04-29T20:35:42.027Z,100648.38
2018-04-29T20:38:45.332Z,100648.41
2018-04-29T20:41:48.657Z,100645.81
2018-04-29T20:44:52.835Z,100657.95
2018-04-29T20:47:56.223Z,100663.34
2018-04-29T20:50:59.809Z,100657.70
2018-04-29T20:54:03.281Z,100662.84
2018-04-29T20:57:06.624Z,100658.14
2018-04-29T21:00:10.076Z,100658.63
2018-04-29T21:03:14.240Z,100661.64
2018-04-29T21:06:17.587Z,100671.19
2018-04-29T21:09:21.680Z,100669.54
2018-04-29T21:12:25.019Z,100670.69
2018-04-29T21:15:28.324Z,100670.31
2018-04-29T21:18:31.659Z,100670.28
2018-04-29T21:21:35.128Z,100666.34
2018-04-29T21:24:38.450Z,100661.17
2018-04-29T21:27:41.777Z,100650.67
2018-04-29T21:30:45.149Z,100648.91
2018-04-29T21:33:48.568Z,100643.67
2018-04-29T21:36:51.986Z,100648.41
2018-04-29T21:39:56.171Z,100640.67
2018-04-29T21:42:59.568Z,100637.51
2018-04-29T21:46:02.981Z,100624.47
2018-04-29T21:49:06.310Z,100621.37
2018-04-29T21:52:10.414Z,100619.51
2018-04-29T21:55:13.732Z,100609.20
2018-04-29T21:58:17.906Z,100606.91
2018-04-29T22:01:21.224Z,100605.14
2018-04-29T22:04:26.200Z,100595.01
2018-04-29T22:07:29.524Z,100588.91
2018-04-29T22:10:32.862Z,100587.44
2018-04-29T22:13:36.190Z,100582.64
2018-04-29T22:16:39.538Z,100585.50
2018-04-29T22:19:42.848Z,100586.73
2018-04-29T22:22:46.217Z,100580.33
2018-04-29T22:25:49.520Z,100562.90
2018-04-29T22:28:52.851Z,100552.50
2018-04-29T22:31:56.179Z,100555.83
2018-04-29T22:34:59.500Z,100554.63
2018-04-29T22:38:02.816Z,100554.59
2018-04-29T22:41:06.159Z,100550.98
2018-04-29T22:44:10.393Z,100553.23
2018-04-29T22:47:13.722Z,100548.82
2018-04-29T22:50:17.148Z,100546.19
2018-04-29T22:53:20.481Z,100543.95
2018-04-29T22:56:24.579Z,100541.13
2018-04-29T22:59:28.110Z,100541.83
2018-04-29T23:02:31.548Z,100539.30
2018-04-29T23:05:34.845Z,100530.16
2018-04-29T23:08:38.152Z,100532.62
2018-04-29T23:11:41.473Z,100518.41
2018-04-29T23:14:44.803Z,100533.02
2018-04-29T23:17:48.252Z,100534.82
2018-04-29T23:20:51.643Z,100531.20
2018-04-29T23:23:55.033Z,100535.61
2018-04-29T23:26:58.360Z,100533.59
2018-04-29T23:30:01.753Z,100536.52
2018-04-29T23:33:05.078Z,100521.47
2018-04-29T23:36:09.182Z,100529.16
2018-04-29T23:39:12.549Z,100526.16
2018-04-29T23:42:16.044Z,100528.69
2018-04-29T23:45:19.357Z,100530.09
2018-04-29T23:48:22.757Z,100522.30
2018-04-29T23:51:26.161Z,100523.34
2018-04-29T23:54:29.553Z,100516.02
2018-04-29T23:57:32.869Z,100513.98
